EDT,Max TemperatureF,Mean TemperatureF,Min TemperatureF,Max Dew PointF,MeanDew PointF,Min DewpointF,Max Humidity, Mean Humidity, Min Humidity, Max Sea Level PressureIn, Mean Sea Level PressureIn, Min Sea Level PressureIn, Max VisibilityMiles, Mean VisibilityMiles, Min VisibilityMiles, Max Wind SpeedMPH, Mean Wind SpeedMPH, Max Gust SpeedMPH,PrecipitationIn, CloudCover, Events, WindDirDegrees
2011-10-1,55,48,41,47,42,36,93,79,65,30.13,30.02,29.92,10,8,2,26,13,36,0.05,7,Rain,329
2011-10-2,60,50,40,39,36,30,92,63,33,30.13,30.08,30.00,10,10,10,24,12,29,0.00,4,,334
2011-10-3,57,50,42,52,46,41,96,81,66,30.19,30.12,30.05,10,10,3,14,4,16,0.07,6,Rain,311
2011-10-4,65,58,50,54,52,50,100,84,67,30.31,30.25,30.18,10,10,7,9,3,13,0.00,6,,317
2011-10-5,77,62,46,56,50,46,100,69,38,30.34,30.29,30.23,10,4,0,6,0,8,0.00,2,Fog,-1
2011-10-6,79,65,50,56,53,49,96,68,39,30.34,30.30,30.27,10,10,8,6,0,8,0.00,0,,260
2011-10-7,80,65,50,56,53,49,93,66,39,30.42,30.36,30.32,10,10,9,9,2,14,0.00,0,,94
2011-10-8,81,68,55,56,53,51,86,61,36,30.45,30.39,30.34,10,10,10,10,3,13,0.00,0,,136
2011-10-9,76,65,53,54,49,43,93,63,33,30.43,30.36,30.29,10,10,9,12,4,20,0.00,2,,102
2011-10-10,80,68,55,52,50,45,80,55,30,30.29,30.22,30.12,10,10,10,10,6,13,0.00,5,,107
2011-10-11,78,68,58,53,50,46,75,54,32,30.11,30.05,29.97,10,10,10,17,7,23,0.00,6,,113
2011-10-12,65,62,58,58,57,53,100,82,63,29.97,29.86,29.77,10,6,3,13,4,16,0.43,8,Rain,131
2011-10-13,69,62,54,61,57,55,100,81,61,29.76,29.61,29.46,10,6,2,12,5,15,0.07,7,Rain,143
2011-10-14,64,59,53,58,50,40,93,70,46,29.69,29.54,29.44,10,10,6,30,15,43,0.07,7,Rain,253
2011-10-15,64,56,48,42,38,32,77,55,32,29.94,29.80,29.69,10,10,10,32,17,39,0.00,2,,253
2011-10-16,76,62,47,52,43,37,77,57,36,29.99,29.85,29.68,10,10,10,26,12,35,T,6,Rain,230
2011-10-17,64,56,47,40,33,27,71,48,24,29.93,29.87,29.83,10,10,10,22,11,26,0.02,5,,256
2011-10-18,61,55,48,46,43,39,93,70,46,29.88,29.78,29.65,10,10,4,17,6,22,0.29,8,Rain-Thunderstorm,15
2011-10-19,57,53,48,57,51,46,100,93,86,29.60,29.37,29.19,10,6,1,28,10,35,1.83,8,Rain,47
2011-10-20,48,45,42,45,42,39,96,90,83,29.83,29.41,29.22,10,6,1,28,18,37,0.34,8,Rain,222
2011-10-21,56,49,41,42,40,39,83,69,55,30.12,30.01,29.85,10,10,7,18,8,24,T,7,Rain,254
2011-10-22,58,47,35,41,37,34,100,72,43,30.17,30.13,30.09,10,7,0,12,2,15,0.00,4,Fog,255
2011-10-23,63,50,37,43,39,36,92,68,43,30.12,30.07,30.02,10,10,10,16,5,20,0.00,5,,178
2011-10-24,61,52,42,54,47,39,96,73,49,30.19,30.05,29.98,10,8,3,25,6,30,0.17,5,Rain,230
2011-10-25,66,52,37,43,40,36,92,66,40,30.25,30.13,29.92,10,10,9,17,7,23,0.00,4,,177
2011-10-26,70,61,52,57,50,40,78,63,47,29.92,29.82,29.75,10,9,4,21,10,26,0.07,8,Rain-Thunderstorm,209
2011-10-27,52,45,37,50,43,37,100,88,76,30.15,29.90,29.76,10,7,2,20,8,26,0.20,8,Rain,349
2011-10-28,48,41,33,39,35,32,100,80,60,30.24,30.17,30.12,10,9,1,10,2,16,0.00,6,,83
2011-10-29,52,41,29,37,34,29,100,77,54,30.14,30.10,30.05,10,9,5,22,2,29,T,3,Rain,208
2011-10-30,54,42,30,37,31,29,100,71,41,30.30,30.22,30.14,10,5,0,13,4,17,0.00,5,Fog,154
2011-10-31,52,46,39,43,36,30,86,71,56,30.22,30.13,30.08,10,10,9,15,7,20,0.07,5,Rain,153